createdAt,value
2017-01-22T00:00:45.476Z,1023.82
2017-01-22T00:01:56.901Z,1023.76
2017-01-22T00:03:08.496Z,1023.82
2017-01-22T00:04:19.935Z,1023.79
2017-01-22T00:05:31.332Z,1023.82
2017-01-22T00:06:42.727Z,1023.79
2017-01-22T00:07:54.117Z,1023.81
2017-01-22T00:09:05.718Z,1023.8
2017-01-22T00:10:17.356Z,1023.79
2017-01-22T00:11:28.750Z,1023.82
2017-01-22T00:12:40.143Z,1023.77
2017-01-22T00:13:51.528Z,1023.78
2017-01-22T00:15:02.926Z,1023.77
2017-01-22T00:16:14.375Z,1023.76
2017-01-22T00:17:25.772Z,1023.73
2017-01-22T00:18:37.194Z,1023.77
2017-01-22T00:19:48.595Z,1023.81
2017-01-22T00:20:59.993Z,1023.81
2017-01-22T00:22:11.638Z,1023.83
2017-01-22T00:23:23.024Z,1023.87
2017-01-22T00:24:34.827Z,1023.82
2017-01-22T00:25:46.421Z,1023.79
2017-01-22T00:26:58.219Z,1023.8
2017-01-22T00:28:09.661Z,1023.84
2017-01-22T00:29:21.271Z,1023.84
2017-01-22T00:30:32.659Z,1023.83
2017-01-22T00:31:44.072Z,1023.81
2017-01-22T00:32:55.473Z,1023.84
2017-01-22T00:34:06.914Z,1023.83
2017-01-22T00:35:18.301Z,1023.81
2017-01-22T00:36:29.694Z,1023.8
2017-01-22T00:37:41.092Z,1023.78
2017-01-22T00:38:52.482Z,1023.82
2017-01-22T00:40:03.923Z,1023.78
2017-01-22T00:41:15.318Z,1023.76
2017-01-22T00:42:26.714Z,1023.77
2017-01-22T00:43:38.114Z,1023.76
2017-01-22T00:44:49.513Z,1023.77
2017-01-22T00:46:01.165Z,1023.79
2017-01-22T00:47:12.558Z,1023.75
2017-01-22T00:48:23.949Z,1023.78
2017-01-22T00:49:35.336Z,1023.79
2017-01-22T00:50:46.722Z,1023.77
2017-01-22T00:51:58.165Z,1023.83
2017-01-22T00:53:09.759Z,1023.82
2017-01-22T00:54:21.158Z,1023.82
2017-01-22T00:55:32.544Z,1023.76
2017-01-22T00:56:44.134Z,1023.76
2017-01-22T00:57:55.575Z,1023.77
2017-01-22T00:59:06.966Z,1023.79
2017-01-22T01:00:18.389Z,1023.81
2017-01-22T01:01:29.984Z,1023.79
2017-01-22T01:02:41.379Z,1023.78
2017-01-22T01:03:53.024Z,1023.77
2017-01-22T01:05:04.427Z,1023.78
2017-01-22T01:06:15.819Z,1023.79
2017-01-22T01:07:27.213Z,1023.86
2017-01-22T01:08:38.611Z,1023.78
2017-01-22T01:09:50.050Z,1023.73
2017-01-22T01:11:01.442Z,1023.73
2017-01-22T01:12:13.031Z,1023.67
2017-01-22T01:13:24.424Z,1023.68
2017-01-22T01:14:36.020Z,1023.7
2017-01-22T01:15:47.469Z,1023.73
2017-01-22T01:16:58.863Z,1023.74
2017-01-22T01:18:10.454Z,1023.75
2017-01-22T01:19:21.846Z,1023.78
2017-01-22T01:20:33.250Z,1023.74
2017-01-22T01:21:44.698Z,1023.73
2017-01-22T01:22:56.088Z,1023.73
2017-01-22T01:24:07.480Z,1023.7
2017-01-22T01:25:18.870Z,1023.74
2017-01-22T01:26:30.263Z,1023.75
2017-01-22T01:27:41.705Z,1023.74
2017-01-22T01:28:53.093Z,1023.73
2017-01-22T01:30:04.511Z,1023.72
2017-01-22T01:31:15.901Z,1023.73
2017-01-22T01:32:27.292Z,1023.72
2017-01-22T01:33:38.738Z,1023.64
2017-01-22T01:34:50.136Z,1023.69
2017-01-22T01:36:01.535Z,1023.65
2017-01-22T01:37:12.932Z,1023.63
2017-01-22T01:38:24.325Z,1023.64
2017-01-22T01:39:35.767Z,1023.61
2017-01-22T01:40:47.364Z,1023.62
2017-01-22T01:41:58.749Z,1023.64
2017-01-22T01:43:10.147Z,1023.61
2017-01-22T01:44:21.538Z,1023.63
2017-01-22T01:45:32.982Z,1023.67
2017-01-22T01:46:44.373Z,1023.69
2017-01-22T01:47:55.798Z,1023.64
2017-01-22T01:49:07.200Z,1023.66
2017-01-22T01:50:18.800Z,1023.65
2017-01-22T01:51:30.237Z,1023.65
2017-01-22T01:52:41.838Z,1023.63
2017-01-22T01:53:53.230Z,1023.59
2017-01-22T01:55:04.629Z,1023.59
2017-01-22T01:56:16.026Z,1023.58
2017-01-22T01:57:27.473Z,1023.62
2017-01-22T01:58:38.863Z,1023.62
2017-01-22T01:59:50.454Z,1023.63
2017-01-22T02:01:01.852Z,1023.57
2017-01-22T02:02:13.242Z,1023.58
2017-01-22T02:03:24.675Z,1023.57
2017-01-22T02:04:36.066Z,1023.6
2017-01-22T02:05:47.457Z,1023.54
2017-01-22T02:06:58.850Z,1023.54
2017-01-22T02:08:10.242Z,1023.52
2017-01-22T02:09:21.681Z,1023.5
2017-01-22T02:10:33.275Z,1023.49
2017-01-22T02:11:44.674Z,1023.48
2017-01-22T02:12:56.063Z,1023.47
2017-01-22T02:14:07.451Z,1023.52
2017-01-22T02:15:19.114Z,1023.46
2017-01-22T02:16:30.497Z,1023.46
2017-01-22T02:17:41.893Z,1023.47
2017-01-22T02:18:53.287Z,1023.43
2017-01-22T02:20:04.684Z,1023.47
2017-01-22T02:21:16.130Z,1023.51
2017-01-22T02:22:27.725Z,1023.45
2017-01-22T02:23:39.123Z,1023.45
2017-01-22T02:24:50.518Z,1023.45
2017-01-22T02:26:01.907Z,1023.44
2017-01-22T02:27:13.350Z,1023.34
2017-01-22T02:28:24.741Z,1023.37
2017-01-22T02:29:36.127Z,1023.3
2017-01-22T02:30:47.524Z,1023.3
2017-01-22T02:31:58.921Z,1023.36
2017-01-22T02:33:10.361Z,1023.33
2017-01-22T02:34:21.757Z,1023.3
2017-01-22T02:35:33.162Z,1023.28
2017-01-22T02:36:44.571Z,1023.29
2017-01-22T02:37:56.171Z,1023.31
2017-01-22T02:39:07.818Z,1023.29
2017-01-22T02:40:19.218Z,1023.3
2017-01-22T02:41:30.618Z,1023.3
2017-01-22T02:42:42.015Z,1023.28
2017-01-22T02:43:53.606Z,1023.32
2017-01-22T02:45:05.044Z,1023.31
2017-01-22T02:46:16.434Z,1023.36
2017-01-22T02:47:27.821Z,1023.35
2017-01-22T02:48:39.214Z,1023.38
2017-01-22T02:49:50.807Z,1023.35
2017-01-22T02:51:02.247Z,1023.36
2017-01-22T02:52:13.632Z,1023.33
2017-01-22T02:53:25.028Z,1023.31
2017-01-22T02:54:36.445Z,1023.33
2017-01-22T02:55:47.834Z,1023.34
2017-01-22T02:56:59.277Z,1023.33
2017-01-22T02:58:10.674Z,1023.33
2017-01-22T02:59:22.067Z,1023.27
2017-01-22T03:00:33.464Z,1023.25
2017-01-22T03:01:44.854Z,1023.27
2017-01-22T03:02:56.329Z,1023.28
2017-01-22T03:04:07.722Z,1023.28
2017-01-22T03:05:19.113Z,1023.26
2017-01-22T03:06:30.709Z,1023.3
2017-01-22T03:07:42.102Z,1023.25
2017-01-22T03:08:53.541Z,1023.24
2017-01-22T03:10:04.935Z,1023.22
2017-01-22T03:11:16.322Z,1023.25
2017-01-22T03:12:27.740Z,1023.27
2017-01-22T03:13:39.135Z,1023.28
2017-01-22T03:14:50.601Z,1023.26
2017-01-22T03:16:02.001Z,1023.24
2017-01-22T03:17:13.594Z,1023.2
2017-01-22T03:18:24.977Z,1023.21
2017-01-22T03:19:36.377Z,1023.18
2017-01-22T03:20:47.821Z,1023.18
2017-01-22T03:21:59.219Z,1023.17
2017-01-22T03:23:10.616Z,1023.15
2017-01-22T03:24:22.011Z,1023.18
2017-01-22T03:25:33.404Z,1023.14
2017-01-22T03:26:44.848Z,1023.18
2017-01-22T03:27:56.243Z,1023.17
2017-01-22T03:29:07.641Z,1023.15
2017-01-22T03:30:19.031Z,1023.18
2017-01-22T03:31:30.425Z,1023.15
2017-01-22T03:32:41.869Z,1023.15
2017-01-22T03:33:53.257Z,1023.15
2017-01-22T03:35:04.650Z,1023.15
2017-01-22T03:36:16.041Z,1023.15
2017-01-22T03:37:27.640Z,1023.13
2017-01-22T03:38:39.083Z,1023.13
2017-01-22T03:39:50.681Z,1023.15
2017-01-22T03:41:02.274Z,1023.18
2017-01-22T03:42:14.065Z,1023.16
2017-01-22T03:43:25.456Z,1023.17
2017-01-22T03:44:36.895Z,1023.2
2017-01-22T03:45:48.290Z,1023.17
2017-01-22T03:46:59.680Z,1023.18
2017-01-22T03:48:11.272Z,1023.22
2017-01-22T03:49:22.655Z,1023.25
2017-01-22T03:50:34.294Z,1023.2
2017-01-22T03:51:45.687Z,1023.23
2017-01-22T03:52:57.078Z,1023.19
2017-01-22T03:54:08.479Z,1023.16
2017-01-22T03:55:20.075Z,1023.16
2017-01-22T03:56:31.510Z,1023.15
2017-01-22T03:57:42.908Z,1023.11
2017-01-22T03:58:54.301Z,1023.14
2017-01-22T04:00:05.702Z,1023.11
2017-01-22T04:01:17.101Z,1023.12
2017-01-22T04:02:28.545Z,1023.13
2017-01-22T04:03:39.930Z,1023.09
2017-01-22T04:04:51.326Z,1023.1
2017-01-22T04:06:02.920Z,1023.12
2017-01-22T04:07:14.313Z,1023.12
2017-01-22T04:08:25.771Z,1023.1
2017-01-22T04:09:37.169Z,1023.11
2017-01-22T04:10:48.761Z,1023.07
2017-01-22T04:12:00.160Z,1023.06
2017-01-22T04:13:11.562Z,1023.11
2017-01-22T04:14:23.007Z,1023.07
2017-01-22T04:15:34.435Z,1023.11
2017-01-22T04:16:45.832Z,1023.08
2017-01-22T04:17:57.431Z,1023.04
2017-01-22T04:19:08.817Z,1023.08
2017-01-22T04:20:20.253Z,1023.09
2017-01-22T04:21:31.677Z,1023.12
2017-01-22T04:22:43.072Z,1023.07
2017-01-22T04:23:54.457Z,1023.06
2017-01-22T04:25:06.044Z,1023.03
2017-01-22T04:26:17.684Z,1023.03
2017-01-22T04:27:29.100Z,1023.05
2017-01-22T04:28:40.492Z,1023.03
2017-01-22T04:29:51.889Z,1023.07
2017-01-22T04:31:03.282Z,1023.08
2017-01-22T04:32:14.928Z,1023.07
2017-01-22T04:33:26.322Z,1023.01
2017-01-22T04:34:37.716Z,1023
2017-01-22T04:35:49.307Z,1022.97
2017-01-22T04:37:00.693Z,1022.96
2017-01-22T04:38:12.136Z,1023.02
2017-01-22T04:39:23.532Z,1023.04
2017-01-22T04:40:34.924Z,1023.06
2017-01-22T04:41:46.536Z,1023.07
2017-01-22T04:42:57.933Z,1023.06
2017-01-22T04:44:09.374Z,1023.04
2017-01-22T04:45:20.774Z,1023.09
2017-01-22T04:46:32.192Z,1023.06
2017-01-22T04:47:43.582Z,1023
2017-01-22T04:48:54.973Z,1022.97
2017-01-22T04:50:06.612Z,1022.98
2017-01-22T04:51:18.003Z,1022.96
2017-01-22T04:52:29.595Z,1022.96
2017-01-22T04:53:40.983Z,1022.95
2017-01-22T04:54:52.573Z,1022.98
2017-01-22T04:56:04.011Z,1022.93
2017-01-22T04:57:15.400Z,1022.95
2017-01-22T04:58:26.793Z,1022.87
2017-01-22T04:59:38.187Z,1022.87
2017-01-22T05:00:49.582Z,1022.87
2017-01-22T05:02:01.025Z,1022.88
2017-01-22T05:03:12.423Z,1022.84
2017-01-22T05:04:23.805Z,1022.88
2017-01-22T05:05:35.399Z,1022.89
2017-01-22T05:06:46.789Z,1022.86
2017-01-22T05:07:58.234Z,1022.88
2017-01-22T05:09:09.632Z,1022.79
2017-01-22T05:10:21.025Z,1022.82
2017-01-22T05:11:32.409Z,1022.81
2017-01-22T05:12:43.800Z,1022.82
2017-01-22T05:13:55.242Z,1022.89
2017-01-22T05:15:06.637Z,1022.89
2017-01-22T05:16:18.028Z,1022.89
2017-01-22T05:17:29.416Z,1022.91
2017-01-22T05:18:40.809Z,1022.93
2017-01-22T05:19:52.253Z,1022.9
2017-01-22T05:21:03.636Z,1022.87
2017-01-22T05:22:15.029Z,1022.91
2017-01-22T05:23:26.414Z,1022.89
2017-01-22T05:24:38.012Z,1022.86
2017-01-22T05:25:49.657Z,1022.86
2017-01-22T05:27:01.047Z,1022.83
2017-01-22T05:28:12.640Z,1022.84
2017-01-22T05:29:24.026Z,1022.86
2017-01-22T05:30:35.414Z,1022.89
2017-01-22T05:31:46.864Z,1022.89
2017-01-22T05:32:58.463Z,1022.91
2017-01-22T05:34:10.053Z,1022.91
2017-01-22T05:35:21.441Z,1022.89
2017-01-22T05:36:32.831Z,1022.89
2017-01-22T05:37:44.273Z,1022.87
2017-01-22T05:38:55.663Z,1022.89
2017-01-22T05:40:07.257Z,1022.9
2017-01-22T05:41:18.657Z,1022.88
2017-01-22T05:42:30.042Z,1022.87
2017-01-22T05:43:41.487Z,1022.87
2017-01-22T05:44:52.884Z,1022.88
2017-01-22T05:46:04.308Z,1022.81
2017-01-22T05:47:15.702Z,1022.84
2017-01-22T05:48:27.086Z,1022.84
2017-01-22T05:49:38.526Z,1022.84
2017-01-22T05:50:49.951Z,1022.88
2017-01-22T05:52:01.558Z,1022.86
2017-01-22T05:53:12.954Z,1022.9
2017-01-22T05:54:24.544Z,1022.91
2017-01-22T05:55:35.990Z,1022.92
2017-01-22T05:56:47.379Z,1022.93
2017-01-22T05:57:58.770Z,1022.92
2017-01-22T05:59:10.160Z,1022.88
2017-01-22T06:00:21.552Z,1022.87
2017-01-22T06:01:32.992Z,1022.87
2017-01-22T06:02:44.391Z,1022.88
2017-01-22T06:03:55.788Z,1022.85
2017-01-22T06:05:07.171Z,1022.82
2017-01-22T06:06:18.563Z,1022.83
2017-01-22T06:07:30.001Z,1022.84
2017-01-22T06:08:41.794Z,1022.86
2017-01-22T06:09:53.193Z,1022.86
2017-01-22T06:11:04.785Z,1022.88
2017-01-22T06:12:16.175Z,1022.82
2017-01-22T06:13:27.612Z,1022.86
2017-01-22T06:14:39.209Z,1022.87
2017-01-22T06:15:50.825Z,1022.86
2017-01-22T06:17:02.220Z,1022.85
2017-01-22T06:18:13.624Z,1022.84
2017-01-22T06:19:25.064Z,1022.82
2017-01-22T06:20:36.457Z,1022.8
2017-01-22T06:21:47.844Z,1022.86
2017-01-22T06:22:59.236Z,1022.88
2017-01-22T06:24:10.631Z,1022.86
2017-01-22T06:25:22.073Z,1022.9
2017-01-22T06:26:33.662Z,1022.91
2017-01-22T06:27:45.060Z,1022.87
2017-01-22T06:28:56.449Z,1022.88
2017-01-22T06:30:07.845Z,1022.97
2017-01-22T06:31:19.291Z,1022.93
2017-01-22T06:32:30.682Z,1022.92
2017-01-22T06:33:42.276Z,1022.96
2017-01-22T06:34:53.664Z,1022.94
2017-01-22T06:36:05.257Z,1022.95
2017-01-22T06:37:16.694Z,1022.93
2017-01-22T06:38:28.088Z,1022.97
2017-01-22T06:39:39.475Z,1022.9
2017-01-22T06:40:50.864Z,1022.97
2017-01-22T06:42:02.261Z,1022.97
2017-01-22T06:43:13.707Z,1022.94
2017-01-22T06:44:25.309Z,1022.95
2017-01-22T06:45:36.709Z,1022.96
2017-01-22T06:46:48.094Z,1022.98
2017-01-22T06:47:59.506Z,1023.02
2017-01-22T06:49:10.951Z,1022.99
2017-01-22T06:50:22.350Z,1022.99
2017-01-22T06:51:33.752Z,1023
2017-01-22T06:52:45.147Z,1023.07
2017-01-22T06:53:56.736Z,1023.03
2017-01-22T06:55:08.183Z,1023.02
2017-01-22T06:56:19.579Z,1023.01
2017-01-22T06:57:31.172Z,1023.01
2017-01-22T06:58:42.569Z,1022.97
2017-01-22T06:59:53.988Z,1022.99
2017-01-22T07:01:05.426Z,1023.04
2017-01-22T07:02:16.821Z,1023.04
2017-01-22T07:03:28.411Z,1023.05
2017-01-22T07:04:39.803Z,1023.07
2017-01-22T07:05:51.193Z,1023.07
2017-01-22T07:07:02.632Z,1023.08
2017-01-22T07:08:14.027Z,1023.07
2017-01-22T07:09:25.616Z,1023.08
2017-01-22T07:10:37.002Z,1023.07
2017-01-22T07:11:48.597Z,1023.04
2017-01-22T07:13:00.042Z,1023.09
2017-01-22T07:14:11.437Z,1023.04
2017-01-22T07:15:23.029Z,1023.09
2017-01-22T07:16:34.416Z,1023.09
2017-01-22T07:17:45.802Z,1023.07
2017-01-22T07:18:57.193Z,1023.08
2017-01-22T07:20:08.787Z,1023.07
2017-01-22T07:21:20.383Z,1023.06
2017-01-22T07:22:31.770Z,1023.03
2017-01-22T07:23:43.202Z,1023.01
2017-01-22T07:24:54.589Z,1023.01
2017-01-22T07:26:05.980Z,1023
2017-01-22T07:27:17.368Z,1023.02
2017-01-22T07:28:28.759Z,1023.05
2017-01-22T07:29:40.203Z,1023.04
2017-01-22T07:30:51.589Z,1023.02
2017-01-22T07:32:02.984Z,1023
2017-01-22T07:33:14.378Z,1023.01
2017-01-22T07:34:25.771Z,1023.01
2017-01-22T07:35:37.224Z,1023.03
2017-01-22T07:36:48.821Z,1023
2017-01-22T07:38:00.210Z,1023.03
2017-01-22T07:39:11.610Z,1023.06
2017-01-22T07:40:23.003Z,1023.04
2017-01-22T07:41:34.452Z,1023.07
2017-01-22T07:42:45.848Z,1023.05
2017-01-22T07:43:57.241Z,1023.04
2017-01-22T07:45:08.632Z,1023.04
2017-01-22T07:46:20.031Z,1023.04
2017-01-22T07:47:31.469Z,1023.07
2017-01-22T07:48:42.862Z,1023.07
2017-01-22T07:49:54.467Z,1023.07
2017-01-22T07:51:05.868Z,1023.11
2017-01-22T07:52:17.283Z,1023.11
2017-01-22T07:53:28.728Z,1023.14
2017-01-22T07:54:40.123Z,1023.16
2017-01-22T07:55:51.520Z,1023.14
2017-01-22T07:57:02.917Z,1023.22
2017-01-22T07:58:14.517Z,1023.15
2017-01-22T07:59:26.158Z,1023.2
2017-01-22T08:00:37.751Z,1023.2
2017-01-22T08:01:49.141Z,1023.13
2017-01-22T08:03:00.743Z,1023.18
2017-01-22T08:04:12.147Z,1023.15
2017-01-22T08:05:23.592Z,1023.19
2017-01-22T08:06:34.984Z,1023.17
2017-01-22T08:07:46.381Z,1023.14
2017-01-22T08:08:57.776Z,1023.16
2017-01-22T08:10:09.167Z,1023.19
2017-01-22T08:11:20.814Z,1023.16
2017-01-22T08:12:32.244Z,1023.17
2017-01-22T08:13:43.835Z,1023.19
2017-01-22T08:14:55.433Z,1023.16
2017-01-22T08:16:06.825Z,1023.16
2017-01-22T08:17:18.273Z,1023.16
2017-01-22T08:18:29.668Z,1023.11
2017-01-22T08:19:41.064Z,1023.14
2017-01-22T08:20:52.465Z,1023.11
2017-01-22T08:22:03.862Z,1023.13
2017-01-22T08:23:15.306Z,1023.13
2017-01-22T08:24:26.704Z,1023.15
2017-01-22T08:25:38.103Z,1023.15
2017-01-22T08:26:49.497Z,1023.1
2017-01-22T08:28:01.090Z,1023.12
2017-01-22T08:29:12.536Z,1023.13
2017-01-22T08:30:23.936Z,1023.14
2017-01-22T08:31:35.348Z,1023.14
2017-01-22T08:32:46.743Z,1023.14
2017-01-22T08:33:58.340Z,1023.09
2017-01-22T08:35:09.779Z,1023.12
2017-01-22T08:36:21.375Z,1023.13
2017-01-22T08:37:32.974Z,1023.18
2017-01-22T08:38:44.368Z,1023.12
2017-01-22T08:39:55.769Z,1023.17
2017-01-22T08:41:07.219Z,1023.18
2017-01-22T08:42:18.820Z,1023.16
2017-01-22T08:43:30.217Z,1023.19
2017-01-22T08:44:41.621Z,1023.21
2017-01-22T08:45:53.017Z,1023.19
2017-01-22T08:47:04.667Z,1023.21
2017-01-22T08:48:16.069Z,1023.25
2017-01-22T08:49:27.469Z,1023.22
2017-01-22T08:50:39.067Z,1023.24
2017-01-22T08:51:50.474Z,1023.24
2017-01-22T08:53:02.121Z,1023.26
2017-01-22T08:54:13.519Z,1023.3
2017-01-22T08:55:25.344Z,1023.27
2017-01-22T08:56:36.742Z,1023.31
2017-01-22T08:57:48.138Z,1023.3
2017-01-22T08:58:59.789Z,1023.28
2017-01-22T09:00:11.188Z,1023.3
2017-01-22T09:01:22.582Z,1023.3
2017-01-22T09:02:33.986Z,1023.29
2017-01-22T09:03:45.376Z,1023.35
2017-01-22T09:04:56.825Z,1023.31
2017-01-22T09:06:08.226Z,1023.28
2017-01-22T09:07:19.621Z,1023.3
2017-01-22T09:08:31.027Z,1023.3
2017-01-22T09:09:42.425Z,1023.29
2017-01-22T09:10:54.072Z,1023.33
2017-01-22T09:12:05.468Z,1023.33
2017-01-22T09:13:17.075Z,1023.33
2017-01-22T09:14:28.674Z,1023.38
2017-01-22T09:15:40.286Z,1023.41
2017-01-22T09:16:51.939Z,1023.38
2017-01-22T09:18:03.344Z,1023.44
2017-01-22T09:19:14.750Z,1023.43
2017-01-22T09:20:26.148Z,1023.41
2017-01-22T09:21:37.555Z,1023.41
2017-01-22T09:22:49.014Z,1023.4
2017-01-22T09:24:00.421Z,1023.42
2017-01-22T09:25:11.827Z,1023.35
2017-01-22T09:26:23.240Z,1023.36
2017-01-22T09:27:34.661Z,1023.39
2017-01-22T09:28:46.117Z,1023.37
2017-01-22T09:29:57.533Z,1023.3
2017-01-22T09:31:09.142Z,1023.37
2017-01-22T09:32:20.550Z,1023.29
2017-01-22T09:33:31.958Z,1023.27
2017-01-22T09:34:43.410Z,1023.23
2017-01-22T09:35:54.825Z,1023.28
2017-01-22T09:37:06.233Z,1023.24
2017-01-22T09:38:17.640Z,1023.26
2017-01-22T09:39:29.043Z,1023.29
2017-01-22T09:40:40.505Z,1023.33
2017-01-22T09:41:51.914Z,1023.33
2017-01-22T09:43:03.325Z,1023.35
2017-01-22T09:44:14.739Z,1023.33
2017-01-22T09:45:26.150Z,1023.29
2017-01-22T09:46:37.612Z,1023.27
2017-01-22T09:47:49.028Z,1023.31
2017-01-22T09:49:00.469Z,1023.3
2017-01-22T09:50:11.874Z,1023.29
2017-01-22T09:51:23.284Z,1023.27
2017-01-22T09:52:34.941Z,1023.25
2017-01-22T09:53:46.355Z,1023.25
2017-01-22T09:54:57.971Z,1023.29
2017-01-22T09:56:09.381Z,1023.26
2017-01-22T09:57:20.791Z,1023.28
2017-01-22T09:58:32.258Z,1023.26
2017-01-22T09:59:43.871Z,1023.29
2017-01-22T10:00:55.285Z,1023.29
2017-01-22T10:02:06.704Z,1023.27
2017-01-22T10:03:18.156Z,1023.29
2017-01-22T10:04:29.824Z,1023.31
2017-01-22T10:05:41.235Z,1023.24
2017-01-22T10:06:52.654Z,1023.23
2017-01-22T10:08:04.080Z,1023.24
2017-01-22T10:09:15.490Z,1023.23
2017-01-22T10:10:27.155Z,1023.23
2017-01-22T10:11:38.579Z,1023.19
2017-01-22T10:12:49.994Z,1023.21
2017-01-22T10:14:01.404Z,1023.24
2017-01-22T10:15:12.814Z,1023.22
2017-01-22T10:16:24.509Z,1023.26
2017-01-22T10:17:35.922Z,1023.17
2017-01-22T10:18:47.342Z,1023.15
2017-01-22T10:19:58.966Z,1023.15
2017-01-22T10:21:10.583Z,1023.15
2017-01-22T10:22:22.046Z,1023.14
2017-01-22T10:23:33.474Z,1023.11
2017-01-22T10:24:44.881Z,1023.06
2017-01-22T10:25:56.298Z,1023.07
2017-01-22T10:27:07.720Z,1023.06
2017-01-22T10:28:19.181Z,1023.06
2017-01-22T10:29:30.601Z,1023.08
2017-01-22T10:30:42.019Z,1023.07
2017-01-22T10:31:53.638Z,1023.09
2017-01-22T10:33:05.048Z,1023.11
2017-01-22T10:34:16.723Z,1023.07
2017-01-22T10:35:28.140Z,1023.08
2017-01-22T10:36:39.569Z,1023.09
2017-01-22T10:37:50.988Z,1023.04
2017-01-22T10:39:02.415Z,1023.02
2017-01-22T10:40:13.883Z,1023.01
2017-01-22T10:41:25.300Z,1023.01
2017-01-22T10:42:36.721Z,1022.96
2017-01-22T10:43:48.340Z,1022.9
2017-01-22T10:44:59.759Z,1022.91
2017-01-22T10:46:11.231Z,1022.84
2017-01-22T10:47:22.644Z,1022.87
2017-01-22T10:48:34.061Z,1022.86
2017-01-22T10:49:45.496Z,1022.89
2017-01-22T10:50:57.110Z,1022.84
2017-01-22T10:52:08.581Z,1022.89
2017-01-22T10:53:20.007Z,1022.87
2017-01-22T10:54:31.418Z,1022.88
2017-01-22T10:55:42.837Z,1022.86
2017-01-22T10:56:54.284Z,1022.81
2017-01-22T10:58:05.751Z,1022.88
2017-01-22T10:59:17.168Z,1022.87
2017-01-22T11:00:28.596Z,1022.84
2017-01-22T11:01:40.005Z,1022.83
2017-01-22T11:02:51.422Z,1022.86
2017-01-22T11:04:02.891Z,1022.86
2017-01-22T11:05:14.307Z,1022.84
2017-01-22T11:06:26.127Z,1022.84
2017-01-22T11:07:37.748Z,1022.86
2017-01-22T11:08:49.158Z,1022.82
2017-01-22T11:10:00.854Z,1022.84
2017-01-22T11:11:12.271Z,1022.82
2017-01-22T11:12:23.891Z,1022.83
2017-01-22T11:13:35.310Z,1022.82
2017-01-22T11:14:46.735Z,1022.81
2017-01-22T11:15:58.203Z,1022.84
2017-01-22T11:17:09.622Z,1022.83
2017-01-22T11:18:21.034Z,1022.84
2017-01-22T11:19:32.449Z,1022.84
2017-01-22T11:20:43.902Z,1022.81
2017-01-22T11:21:55.373Z,1022.8
2017-01-22T11:23:06.784Z,1022.75
2017-01-22T11:24:18.198Z,1022.71
2017-01-22T11:25:29.628Z,1022.72
2017-01-22T11:26:41.043Z,1022.7
2017-01-22T11:27:52.513Z,1022.72
2017-01-22T11:29:03.926Z,1022.69
2017-01-22T11:30:15.344Z,1022.71
2017-01-22T11:31:26.769Z,1022.67
2017-01-22T11:32:38.196Z,1022.69
2017-01-22T11:33:49.664Z,1022.62
2017-01-22T11:35:01.072Z,1022.64
2017-01-22T11:36:12.495Z,1022.64
2017-01-22T11:37:23.912Z,1022.58
2017-01-22T11:38:35.334Z,1022.59
2017-01-22T11:39:46.810Z,1022.55
2017-01-22T11:40:58.224Z,1022.52
2017-01-22T11:42:09.646Z,1022.52
2017-01-22T11:43:21.059Z,1022.54
2017-01-22T11:44:32.473Z,1022.6
2017-01-22T11:45:43.939Z,1022.69
2017-01-22T11:46:55.542Z,1022.7
2017-01-22T11:48:07.156Z,1022.62
2017-01-22T11:49:18.567Z,1022.51
2017-01-22T11:50:29.974Z,1022.59
2017-01-22T11:51:41.629Z,1022.61
2017-01-22T11:52:53.033Z,1022.71
2017-01-22T11:54:04.446Z,1022.63
2017-01-22T11:55:15.858Z,1022.52
2017-01-22T11:56:27.266Z,1022.64
2017-01-22T11:57:38.723Z,1022.56
2017-01-22T11:58:50.134Z,1022.6
2017-01-22T12:00:01.546Z,1022.49
2017-01-22T12:01:12.963Z,1022.55
2017-01-22T12:02:24.372Z,1022.56
2017-01-22T12:03:35.831Z,1022.5
2017-01-22T12:04:47.442Z,1022.46
2017-01-22T12:05:58.850Z,1022.26
2017-01-22T12:07:10.298Z,1022.15
2017-01-22T12:08:21.716Z,1022.1
2017-01-22T12:09:33.380Z,1022.09
2017-01-22T12:10:44.788Z,1022.08
2017-01-22T12:11:56.200Z,1022.09
2017-01-22T12:13:08.015Z,1022.04
2017-01-22T12:14:19.436Z,1022.05
2017-01-22T12:15:31.099Z,1022.02
2017-01-22T12:16:42.511Z,1022.02
2017-01-22T12:17:54.133Z,1021.99
2017-01-22T12:19:05.547Z,1022
2017-01-22T12:20:16.944Z,1022.02
2017-01-22T12:21:28.394Z,1021.97
2017-01-22T12:22:39.807Z,1021.96
2017-01-22T12:23:51.214Z,1021.96
2017-01-22T12:25:02.626Z,1021.92
2017-01-22T12:26:14.241Z,1021.93
2017-01-22T12:27:25.735Z,1021.89
2017-01-22T12:28:37.145Z,1021.92
2017-01-22T12:29:48.560Z,1021.89
2017-01-22T12:31:00.234Z,1021.88
2017-01-22T12:32:11.641Z,1021.89
2017-01-22T12:33:23.098Z,1021.88
2017-01-22T12:34:34.508Z,1021.84
2017-01-22T12:35:45.917Z,1021.83
2017-01-22T12:36:57.330Z,1021.83
2017-01-22T12:38:08.736Z,1021.75
2017-01-22T12:39:20.396Z,1021.73
2017-01-22T12:40:31.807Z,1021.75
2017-01-22T12:41:43.421Z,1021.71
2017-01-22T12:42:55.229Z,1021.71
2017-01-22T12:44:06.634Z,1021.66
2017-01-22T12:45:18.290Z,1021.65
2017-01-22T12:46:29.930Z,1021.64
2017-01-22T12:47:41.355Z,1021.63
2017-01-22T12:48:52.766Z,1021.66
2017-01-22T12:50:04.182Z,1021.59
2017-01-22T12:51:15.841Z,1021.62
2017-01-22T12:52:27.250Z,1021.62
2017-01-22T12:53:39.064Z,1021.59
2017-01-22T12:54:50.515Z,1021.6
2017-01-22T12:56:02.158Z,1021.57
2017-01-22T12:57:13.824Z,1021.55
2017-01-22T12:58:25.234Z,1021.55
2017-01-22T12:59:36.850Z,1021.56
2017-01-22T13:00:48.262Z,1021.5
2017-01-22T13:01:59.681Z,1021.51
2017-01-22T13:03:11.138Z,1021.51
2017-01-22T13:04:22.546Z,1021.52
2017-01-22T13:05:33.953Z,1021.51
2017-01-22T13:06:45.366Z,1021.54
2017-01-22T13:07:56.771Z,1021.45
2017-01-22T13:09:08.433Z,1021.52
2017-01-22T13:10:19.845Z,1021.46
2017-01-22T13:11:31.463Z,1021.45
2017-01-22T13:12:42.872Z,1021.43
2017-01-22T13:13:54.478Z,1021.46
2017-01-22T13:15:06.137Z,1021.45
2017-01-22T13:16:17.546Z,1021.45
2017-01-22T13:17:28.962Z,1021.45
2017-01-22T13:18:40.360Z,1021.44
2017-01-22T13:19:51.771Z,1021.42
2017-01-22T13:21:03.228Z,1021.44
2017-01-22T13:22:14.644Z,1021.44
2017-01-22T13:23:26.052Z,1021.47
2017-01-22T13:24:37.654Z,1021.44
2017-01-22T13:25:49.063Z,1021.41
2017-01-22T13:27:00.530Z,1021.37
2017-01-22T13:28:11.936Z,1021.33
2017-01-22T13:29:23.552Z,1021.33
2017-01-22T13:30:34.959Z,1021.22
2017-01-22T13:31:46.383Z,1021.27
2017-01-22T13:32:58.044Z,1021.26
2017-01-22T13:34:09.453Z,1021.28
2017-01-22T13:35:20.869Z,1021.26
2017-01-22T13:36:32.269Z,1021.26
2017-01-22T13:37:43.872Z,1021.26
2017-01-22T13:38:55.336Z,1021.22
2017-01-22T13:40:06.736Z,1021.2
2017-01-22T13:41:18.138Z,1021.21
2017-01-22T13:42:29.544Z,1021.22
2017-01-22T13:43:40.948Z,1021.23
2017-01-22T13:44:52.395Z,1021.21
2017-01-22T13:46:03.804Z,1021.25
2017-01-22T13:47:15.426Z,1021.24
2017-01-22T13:48:26.846Z,1021.26
2017-01-22T13:49:38.461Z,1021.23
2017-01-22T13:50:49.924Z,1021.21
2017-01-22T13:52:01.323Z,1021.24
2017-01-22T13:53:12.729Z,1021.26
2017-01-22T13:54:24.134Z,1021.24
2017-01-22T13:55:35.569Z,1021.21
2017-01-22T13:56:47.013Z,1021.21
2017-01-22T13:57:58.421Z,1021.23
2017-01-22T13:59:09.848Z,1021.23
2017-01-22T14:00:21.456Z,1021.22
2017-01-22T14:01:32.858Z,1021.21
2017-01-22T14:02:44.315Z,1021.23
2017-01-22T14:03:55.722Z,1021.2
2017-01-22T14:05:07.529Z,1021.17
2017-01-22T14:06:18.929Z,1021.15
2017-01-22T14:07:30.337Z,1021.11
2017-01-22T14:08:41.791Z,1021.1
2017-01-22T14:09:53.198Z,1021.13
2017-01-22T14:11:04.605Z,1021.11
2017-01-22T14:12:16.216Z,1021.19
2017-01-22T14:13:27.627Z,1021.19
2017-01-22T14:14:39.081Z,1021.18
2017-01-22T14:15:50.691Z,1021.2
2017-01-22T14:17:02.296Z,1021.22
2017-01-22T14:18:13.695Z,1021.24
2017-01-22T14:19:25.103Z,1021.22
2017-01-22T14:20:36.564Z,1021.22
2017-01-22T14:21:48.179Z,1021.18
2017-01-22T14:22:59.581Z,1021.22
2017-01-22T14:24:11.186Z,1021.25
2017-01-22T14:25:22.590Z,1021.25
2017-01-22T14:26:34.046Z,1021.26